Wind From: 11-12-2017 12:03 Until: 12-12-2017 06:00 warning for: Wind Level: Orange info button

Power and phone distribution networks may be disrupted for relatively long periods., Roofs and chimneys can be damaged. , Tree branches may break. , Vehicles can be deported. , Traffic may be disrupted, particularly on secondary roads in forest areas. Limit your trips. , Limit your speed in highway driving, especially if you drive a vehicle or hitch sensitive to wind. , Do not go for walks in forests or along the coast., In town, be vigilant against possible falling objects., Do not work on roofs and do not touch any electrical line fallen on the ground., Store or secure sensitive objects to wind or likely to be damaged., Always install power generators outside buildings. 


Meteo18 Weather Cam more information Meteo18 Weather Cam


Thunder radar more information blitzortung!


Rain radar more information rain snow radar


Visit our other weather sites:

Template documentation
and downloads

And another site



Weather Underground History page Text

Daily Summary for July 18, 2017 Units:  English    Metric   Both
« Previous Day
Next Day »
Daily Weekly Monthly Yearly Custom
  High: Low: Average:
Temperature: 92.8 °F 66 °F 79.5 °F
Dew Point: 67.6 °F 56.5 °F 60.3 °F
Humidity: 77 % 32 % 54 %
Wind Speed: 10 mph 0 mph 2.1 mph
Wind Gust: 16 mph - -
Wind:- - ESE
Pressure: 30.1 in 29.8 in -
Precipitation: 0.01 in    
Historical Graphs
 
 
Tabular Data for July 18, 2017
Time Temperature Dew Point Pressure Wind Wind Speed Wind Gust Humidity Rainfall Rate (Hourly)
00:02 72.1 °F 60.1 °F 30.1 in NNW 1 mph 2 mph 66 % 0 in
00:12 72 °F 60.4 °F 30.1 in Calm   2 mph 67 % 0 in
00:17 71.8 °F 60.3 °F 30.1 in Calm   2 mph 67 % 0 in
00:22 71.6 °F 60.1 °F 30.1 in NNW 2 mph 2 mph 67 % 0 in
00:32 71.6 °F 60.1 °F 30.1 in Calm   2 mph 67 % 0 in
00:42 71.4 °F 60.3 °F 30.1 in NNW 1 mph 2 mph 68 % 0 in
00:47 71.4 °F 60.3 °F 30.1 in Calm   2 mph 68 % 0 in
00:52 71.2 °F 59.7 °F 30.1 in Calm   2 mph 67 % 0 in
00:57 71.2 °F 60.1 °F 30.1 in Calm   2 mph 68 % 0 in
01:02 71.2 °F 60.1 °F 30.1 in North 1 mph 2 mph 68 % 0 in
01:07 71.1 °F 59.9 °F 30.1 in North 1 mph 2 mph 68 % 0 in
01:12 70.9 °F 59.7 °F 30.1 in Calm   2 mph 68 % 0 in
01:17 70.9 °F 59.7 °F 30.1 in NNW 2 mph 2 mph 68 % 0 in
01:22 71.1 °F 59.5 °F 30.1 in NNW 1 mph 2 mph 67 % 0 in
01:27 70.9 °F 59.4 °F 30.1 in Calm   2 mph 67 % 0 in
01:32 70.7 °F 59.5 °F 30.1 in Calm   2 mph 68 % 0 in
01:37 70.7 °F 59.5 °F 30 in Calm   2 mph 68 % 0 in
01:42 70.5 °F 59.4 °F 30 in Calm     68 % 0 in
01:47 70.3 °F 59.4 °F 30 in Calm     68 % 0 in
01:52 70.3 °F 59.4 °F 30 in Calm     68 % 0 in
01:57 70.2 °F 59.5 °F 30 in Calm     69 % 0 in
02:02 69.4 °F 59.2 °F 30 in Calm     70 % 0 in
02:07 68.9 °F 59.5 °F 30 in Calm     72 % 0 in
02:12 68.7 °F 59 °F 30 in Calm     71 % 0 in
02:17 68.7 °F 59 °F 30 in Calm     71 % 0 in
02:22 68.7 °F 59.4 °F 30 in Calm     72 % 0 in
02:32 68.7 °F 59 °F 30 in Calm   2 mph 71 % 0 in
02:42 68.4 °F 59 °F 30 in NW 1 mph 3 mph 72 % 0 in
02:47 68.4 °F 59 °F 30 in Calm   3 mph 72 % 0 in
02:52 68.5 °F 59.2 °F 30 in Calm   2 mph 72 % 0 in
02:57 68.4 °F 59 °F 30 in North 1 mph 2 mph 72 % 0 in
03:02 68.2 °F 59.2 °F 30 in NNW 2 mph 3 mph 73 % 0 in
03:07 68 °F 59 °F 30 in NNE 2 mph 3 mph 73 % 0 in
03:12 67.8 °F 58.8 °F 30 in NNW 1 mph 3 mph 73 % 0 in
03:17 67.8 °F 59.2 °F 30 in North 2 mph 3 mph 74 % 0 in
03:22 67.8 °F 58.8 °F 30 in NNE 1 mph 3 mph 73 % 0 in
03:27 67.6 °F 59 °F 30 in Calm   3 mph 74 % 0 in
03:32 67.3 °F 58.6 °F 30 in Calm   3 mph 74 % 0 in
03:37 67.1 °F 58.8 °F 30 in Calm   2 mph 75 % 0 in
03:42 67.1 °F 58.8 °F 30 in Calm   2 mph 75 % 0 in
03:47 67.3 °F 58.6 °F 30 in Calm   2 mph 74 % 0 in
03:52 67.5 °F 58.8 °F 30 in NE 4 mph 4 mph 74 % 0 in
03:57 68.2 °F 59.2 °F 30 in NE 4 mph 5 mph 73 % 0 in
04:02 68.4 °F 59 °F 30 in NE 2 mph 7 mph 72 % 0 in
04:12 68.2 °F 59.2 °F 30 in NNE 1 mph 7 mph 73 % 0 in
04:17 67.8 °F 58.8 °F 30 in Calm   6 mph 73 % 0 in
04:22 67.5 °F 58.8 °F 30 in North 1 mph 6 mph 74 % 0 in
04:32 67.1 °F 58.8 °F 30 in NNW 1 mph 3 mph 75 % 0 in
04:37 67.1 °F 58.8 °F 30 in Calm   3 mph 75 % 0 in
04:42 67.1 °F 58.5 °F 30 in NNW 1 mph 3 mph 74 % 0 in
04:47 66.9 °F 58.8 °F 30 in Calm   3 mph 75 % 0 in
04:52 66.7 °F 58.6 °F 30 in Calm   3 mph 75 % 0 in
04:57 66.6 °F 58.5 °F 30 in Calm   2 mph 75 % 0 in
05:02 66.6 °F 58.5 °F 30 in Calm   1 mph 75 % 0 in
05:12 66.6 °F 58.5 °F 30 in Calm   2 mph 75 % 0 in
05:17 66.4 °F 58.6 °F 30 in Calm   2 mph 76 % 0 in
05:22 66.2 °F 58.5 °F 30 in Calm   1 mph 76 % 0 in
05:27 66.2 °F 58.5 °F 30 in Calm   1 mph 76 % 0 in
05:37 66 °F 58.6 °F 30 in Calm   1 mph 77 % 0 in
05:42 66.2 °F 58.5 °F 30 in North 1 mph 1 mph 76 % 0 in
05:47 66.2 °F 58.5 °F 30 in Calm   3 mph 76 % 0 in
05:52 66.2 °F 58.5 °F 30 in Calm   3 mph 76 % 0 in
06:02 66.4 °F 58.3 °F 30 in ENE 1 mph 1 mph 75 % 0 in
06:12 66.9 °F 58.8 °F 30 in NE 3 mph 4 mph 75 % 0 in
06:17 67.1 °F 58.5 °F 30 in NE 4 mph 4 mph 74 % 0 in
06:22 67.1 °F 58.5 °F 30 in NE 1 mph 4 mph 74 % 0 in
06:32 66.9 °F 58.8 °F 30 in Calm   4 mph 75 % 0 in
06:42 66.4 °F 58.6 °F 30 in North 1 mph 5 mph 76 % 0 in
06:47 66.4 °F 58.6 °F 30 in Calm   3 mph 76 % 0 in
06:52 66.4 °F 58.6 °F 30 in Calm   3 mph 76 % 0 in
06:57 66.6 °F 58.8 °F 30 in Calm   2 mph 76 % 0 in
07:02 67.3 °F 59 °F 30 in Calm   2 mph 75 % 0 in
07:12 68.2 °F 59.5 °F 30 in Calm   1 mph 74 % 0 in
07:17 68.5 °F 59.9 °F 30 in Calm   1 mph 74 % 0 in
07:22 69.1 °F 60.1 °F 30 in Calm     73 % 0 in
07:32 70.2 °F 60.6 °F 30 in NNE 1 mph   72 % 0 in
07:42 70.5 °F 60.3 °F 30 in NE 3 mph 3 mph 70 % 0 in
07:52 70.7 °F 60.4 °F 30 in NNE 2 mph 3 mph 70 % 0 in
07:57 71.1 °F 60.4 °F 30 in NE 2 mph 5 mph 69 % 0 in
08:02 71.4 °F 60.8 °F 30 in NE 1 mph 5 mph 69 % 0 in
08:12 72.3 °F 61.5 °F 30 in ENE 2 mph 5 mph 69 % 0 in
08:17 72.5 °F 61 °F 30 in ENE 3 mph 3 mph 67 % 0 in
08:22 72.9 °F 60.8 °F 30 in East 3 mph 6 mph 66 % 0 in
08:27 73.2 °F 61.2 °F 30 in ENE 2 mph 6 mph 66 % 0 in
08:32 73.6 °F 61.5 °F 30 in ENE 3 mph 6 mph 66 % 0 in
08:42 74.5 °F 61 °F 30 in ENE 4 mph 4 mph 63 % 0 in
08:47 75 °F 60.3 °F 30 in NE 4 mph 6 mph 60 % 0 in
08:52 75.6 °F 59.2 °F 30 in ESE 2 mph 6 mph 57 % 0 in
08:57 76.1 °F 59.2 °F 30 in Calm   7 mph 56 % 0 in
09:02 76.5 °F 59.2 °F 30 in SE 5 mph 7 mph 55 % 0 in
09:12 76.5 °F 60.1 °F 30 in ESE 3 mph 6 mph 57 % 0 in
09:17 77 °F 60.6 °F 30 in East 1 mph 7 mph 57 % 0 in
09:22 77.2 °F 60.3 °F 30 in East 1 mph 7 mph 56 % 0 in
09:27 77.4 °F 60.4 °F 30 in SE 3 mph 7 mph 56 % 0 in
09:32 77.9 °F 61 °F 30 in NE 4 mph 7 mph 56 % 0 in
09:42 77.9 °F 60.4 °F 30 in Calm   7 mph 55 % 0 in
09:52 77.5 °F 60.1 °F 30 in East 6 mph 6 mph 55 % 0 in
09:57 78.4 °F 60.4 °F 30 in ESE 1 mph 9 mph 54 % 0 in
10:02 79.2 °F 59.5 °F 30 in ENE 4 mph 9 mph 51 % 0 in
10:12 79.7 °F 58.8 °F 30 in ENE 4 mph 8 mph 49 % 0 in
10:17 79.9 °F 58.5 °F 30 in East 1 mph 7 mph 48 % 0 in
10:27 81.1 °F 58.5 °F 30 in NE 2 mph 7 mph 46 % 0 in
10:32 81.7 °F 58.3 °F 30 in ENE 7 mph 7 mph 45 % 0 in
10:42 82.2 °F 58.1 °F 30 in Calm   8 mph 44 % 0 in
10:52 83.1 °F 57.6 °F 30 in East 4 mph 8 mph 42 % 0 in
11:02 82.9 °F 57.6 °F 30 in ESE 3 mph 8 mph 42 % 0 in
11:12 83.7 °F 58.1 °F 30 in ENE 1 mph 8 mph 42 % 0 in
11:17 83.8 °F 57 °F 30 in ESE 3 mph 9 mph 40 % 0 in
11:22 83.8 °F 57.6 °F 30 in ESE 4 mph 11 mph 41 % 0 in
11:32 84.4 °F 57.4 °F 30 in SW 3 mph 11 mph 40 % 0 in
11:37 84.9 °F 57.2 °F 30 in ENE 3 mph 10 mph 39 % 0 in
11:47 85.6 °F 57.2 °F 30 in ENE 1 mph 10 mph 38 % 0 in
11:52 86.2 °F 58.3 °F 30 in East 1 mph 10 mph 39 % 0 in
11:57 86.4 °F 57.7 °F 30 in East 6 mph 9 mph 38 % 0 in
12:02 86.7 °F 57.4 °F 30 in East 2 mph 9 mph 37 % 0 in
12:12 87.4 °F 57.9 °F 30 in ENE 2 mph 10 mph 37 % 0 in
12:17 87.4 °F 56.5 °F 30 in SE 4 mph 10 mph 35 % 0 in
12:22 87.6 °F 56.7 °F 30 in SE 4 mph 10 mph 35 % 0 in
12:32 87.6 °F 56.7 °F 30 in SSW 2 mph 9 mph 35 % 0 in
12:37 87.8 °F 56.7 °F 29.9 in SSE 5 mph 10 mph 35 % 0 in
12:42 87.6 °F 57.4 °F 29.9 in SSE 5 mph 10 mph 36 % 0 in
12:47 88 °F 58.5 °F 29.9 in ESE 3 mph 10 mph 37 % 0 in
12:52 88.5 °F 58.1 °F 29.9 in SSW 4 mph 10 mph 36 % 0 in
12:57 88.2 °F 58.6 °F 29.9 in ENE 5 mph 10 mph 37 % 0 in
13:02 88.3 °F 57.9 °F 29.9 in ESE 1 mph 10 mph 36 % 0 in
13:12 89.1 °F 58.6 °F 29.9 in SSW 2 mph 11 mph 36 % 0 in
13:22 88.5 °F 56.5 °F 29.9 in SSE 8 mph 12 mph 34 % 0 in
13:32 88.2 °F 57.9 °F 29.9 in SW 4 mph 12 mph 36 % 0 in
13:37 88 °F 57.7 °F 29.9 in East 2 mph 11 mph 36 % 0 in
13:42 88.3 °F 57.9 °F 29.9 in SSE 3 mph 11 mph 36 % 0 in
13:52 89.2 °F 58.8 °F 29.9 in WSW 4 mph 12 mph 36 % 0 in
13:57 90 °F 57.7 °F 29.9 in SE 3 mph 12 mph 34 % 0 in
14:02 90 °F 59.4 °F 29.9 in ESE 5 mph 10 mph 36 % 0 in
14:07 90 °F 58.6 °F 29.9 in SW 3 mph 11 mph 35 % 0 in
14:12 90.1 °F 58.8 °F 29.9 in SE 5 mph 11 mph 35 % 0 in
14:22 90 °F 58.6 °F 29.9 in NNE 2 mph 11 mph 35 % 0 in
14:27 90.7 °F 59.2 °F 29.9 in ESE 3 mph 11 mph 35 % 0 in
14:32 90.7 °F 59.2 °F 29.9 in East 3 mph 11 mph 35 % 0 in
14:37 91 °F 57.9 °F 29.9 in ESE 2 mph 10 mph 33 % 0 in
14:42 90.9 °F 58.6 °F 29.9 in ENE 3 mph 11 mph 34 % 0 in
14:47 91 °F 57.9 °F 29.9 in SW 3 mph 11 mph 33 % 0 in
14:52 91.2 °F 58.1 °F 29.9 in East 1 mph 11 mph 33 % 0 in
14:57 91.6 °F 59.2 °F 29.9 in SSE 2 mph 15 mph 34 % 0 in
15:02 91.9 °F 60.4 °F 29.9 in ESE 9 mph 15 mph 35 % 0 in
15:07 91.6 °F 59.2 °F 29.9 in ESE 2 mph 10 mph 34 % 0 in
15:12 91.2 °F 58.1 °F 29.9 in SSW 9 mph 12 mph 33 % 0 in
15:17 91.2 °F 58.1 °F 29.9 in ESE 6 mph 12 mph 33 % 0 in
15:22 91.6 °F 60.1 °F 29.9 in ESE 4 mph 12 mph 35 % 0 in
15:32 90.3 °F 58.1 °F 29.9 in West 2 mph 12 mph 34 % 0 in
15:37 90.5 °F 59.2 °F 29.9 in SE 2 mph 12 mph 35 % 0 in
15:42 91.4 °F 59.9 °F 29.9 in SE 3 mph 10 mph 35 % 0 in
15:47 91.8 °F 59.4 °F 29.9 in ENE 4 mph 10 mph 34 % 0 in
15:52 91.9 °F 60.4 °F 29.9 in SE 8 mph 10 mph 35 % 0 in
15:57 92.1 °F 59.7 °F 29.9 in East 3 mph 10 mph 34 % 0 in
16:02 92.5 °F 60.1 °F 29.9 in ESE 3 mph 10 mph 34 % 0 in
16:07 92.8 °F 60.3 °F 29.9 in ESE 5 mph 9 mph 34 % 0 in
16:12 92.7 °F 59.4 °F 29.9 in East 4 mph 9 mph 33 % 0 in
16:17 92.7 °F 59.4 °F 29.9 in SE 4 mph 10 mph 33 % 0 in
16:22 92.5 °F 59.2 °F 29.9 in East 5 mph 11 mph 33 % 0 in
16:27 92.5 °F 58.3 °F 29.9 in SE 4 mph 11 mph 32 % 0 in
16:32 92.5 °F 59.2 °F 29.9 in ESE 10 mph 11 mph 33 % 0 in
16:37 92.3 °F 59 °F 29.9 in ESE 10 mph 11 mph 33 % 0 in
16:42 92.8 °F 61.2 °F 29.9 in East 5 mph 16 mph 35 % 0 in
16:47 92.5 °F 60.1 °F 29.9 in SE 4 mph 16 mph 34 % 0 in
16:57 90.3 °F 58.1 °F 29.9 in East 4 mph 10 mph 34 % 0 in
17:02 89.8 °F 59.2 °F 29.9 in Calm   10 mph 36 % 0 in
17:07 89.2 °F 59.5 °F 29.9 in SE 1 mph 8 mph 37 % 0 in
17:12 89.1 °F 60.1 °F 29.9 in ESE 2 mph 8 mph 38 % 0 in
17:17 88.7 °F 61.3 °F 29.9 in South 2 mph 8 mph 40 % 0 in
17:22 88.2 °F 62.8 °F 29.9 in SE 3 mph 8 mph 43 % 0 in
17:27 86.5 °F 66.7 °F 29.9 in SE 2 mph 8 mph 52 % 0 in
17:32 84.7 °F 66.2 °F 29.9 in East 4 mph 7 mph 54 % 0.01 in
17:37 84.6 °F 67.6 °F 29.9 in East 3 mph 7 mph 57 % 0.01 in
17:42 85.3 °F 66.7 °F 29.9 in ENE 5 mph 7 mph 54 % 0.01 in
17:47 85.8 °F 66.7 °F 29.9 in East 5 mph 7 mph 53 % 0.01 in
17:52 86.5 °F 66.7 °F 29.9 in ENE 5 mph 9 mph 52 % 0.01 in
17:57 87.3 °F 65.8 °F 29.9 in ENE 6 mph 11 mph 49 % 0.01 in
18:02 87.8 °F 65.7 °F 29.9 in ENE 3 mph 11 mph 48 % 0.01 in
18:12 88.3 °F 66.2 °F 29.9 in ENE 5 mph 10 mph 48 % 0.01 in
18:17 88.5 °F 66.4 °F 29.9 in ENE 6 mph 10 mph 48 % 0.01 in
18:22 88.2 °F 66.6 °F 29.9 in ENE 5 mph 10 mph 49 % 0.01 in
18:27 88 °F 66.4 °F 29.9 in NE 2 mph 10 mph 49 % 0.01 in
18:32 88 °F 65.3 °F 29.9 in East 4 mph 8 mph 47 % 0 in
18:42 88.2 °F 64.8 °F 29.9 in East 3 mph 8 mph 46 % 0 in
18:52 88.2 °F 63.5 °F 29.9 in East 3 mph 7 mph 44 % 0 in
18:57 88.5 °F 63.1 °F 29.9 in ESE 1 mph 7 mph 43 % 0 in
19:02 88.9 °F 62.8 °F 29.9 in ENE 3 mph 6 mph 42 % 0 in
19:07 88.9 °F 63.5 °F 29.9 in ENE 3 mph 6 mph 43 % 0 in
19:12 88.5 °F 63.1 °F 29.9 in ENE 5 mph 6 mph 43 % 0 in
19:17 88.3 °F 62.4 °F 29.9 in ENE 3 mph 6 mph 42 % 0 in
19:22 88.3 °F 61.7 °F 29.9 in ENE 5 mph 7 mph 41 % 0 in
19:27 88.3 °F 62.4 °F 29.9 in ENE 3 mph 8 mph 42 % 0 in
19:32 88.2 °F 62.8 °F 29.9 in East 6 mph 8 mph 43 % 0 in
19:37 88.2 °F 62.2 °F 29.9 in East 2 mph 8 mph 42 % 0 in
19:42 88 °F 62.6 °F 29.9 in ENE 4 mph 8 mph 43 % 0 in
19:47 87.6 °F 62.4 °F 29.9 in East 1 mph 8 mph 43 % 0 in
19:52 87.6 °F 62.4 °F 29.9 in ENE 4 mph 6 mph 43 % 0 in
19:57 87.4 °F 62.2 °F 29.9 in East 5 mph 6 mph 43 % 0 in
20:02 87.4 °F 62.2 °F 29.8 in East 4 mph 7 mph 43 % 0 in
20:12 87.1 °F 62.6 °F 29.8 in East 3 mph 7 mph 44 % 0 in
20:17 86.7 °F 62.2 °F 29.8 in East 3 mph 7 mph 44 % 0 in
20:22 86.5 °F 62.6 °F 29.8 in East 1 mph 6 mph 45 % 0 in
20:27 86.5 °F 62.6 °F 29.8 in ENE 2 mph 6 mph 45 % 0 in
20:32 86.4 °F 62.4 °F 29.8 in ENE 3 mph 5 mph 45 % 0 in
20:37 86.2 °F 63 °F 29.8 in ENE 3 mph 5 mph 46 % 0 in
20:42 85.8 °F 63.3 °F 29.8 in ENE 1 mph 4 mph 47 % 0 in
20:47 85.6 °F 63.1 °F 29.8 in East 2 mph 5 mph 47 % 0 in
20:52 85.3 °F 62.8 °F 29.8 in East 4 mph 5 mph 47 % 0 in
20:57 84.7 °F 63 °F 29.8 in ENE 2 mph 5 mph 48 % 0 in
21:02 84.6 °F 62.8 °F 29.8 in East 2 mph 5 mph 48 % 0 in
21:07 84.4 °F 62.6 °F 29.8 in ENE 2 mph 5 mph 48 % 0 in
21:12 84 °F 62.2 °F 29.8 in East 2 mph 5 mph 48 % 0 in
21:17 83.7 °F 62.4 °F 29.8 in Calm   4 mph 49 % 0 in
21:22 83.7 °F 63 °F 29.8 in West 1 mph 4 mph 50 % 0 in
21:32 81.5 °F 63.3 °F 29.8 in Calm   3 mph 54 % 0 in
21:37 81 °F 62.8 °F 29.8 in ENE 1 mph 4 mph 54 % 0 in
21:42 81.9 °F 62.4 °F 29.8 in Calm   4 mph 52 % 0 in
21:47 81.5 °F 62.8 °F 29.8 in Calm   2 mph 53 % 0 in
21:52 81.3 °F 62.1 °F 29.8 in East 1 mph 2 mph 52 % 0 in
21:57 81.3 °F 62.1 °F 29.8 in ENE 1 mph 2 mph 52 % 0 in
22:02 80.8 °F 62.6 °F 29.8 in Calm   3 mph 54 % 0 in
22:07 79.3 °F 62.2 °F 29.8 in Calm   3 mph 56 % 0 in
22:12 79.3 °F 61.7 °F 29.8 in Calm   2 mph 55 % 0 in
22:17 79.3 °F 62.2 °F 29.9 in WNW 1 mph   56 % 0 in
22:22 78.6 °F 62.1 °F 29.8 in Calm   2 mph 57 % 0 in
22:32 78.3 °F 62.2 °F 29.9 in Calm   2 mph 58 % 0 in
22:37 77.9 °F 61.9 °F 29.8 in Calm   1 mph 58 % 0 in
22:42 77.7 °F 61.7 °F 29.9 in Calm   1 mph 58 % 0 in
22:47 77.9 °F 61.5 °F 29.9 in Calm   1 mph 57 % 0 in
22:52 77.7 °F 61.7 °F 29.9 in Calm   1 mph 58 % 0 in
22:57 77.7 °F 61.7 °F 29.8 in Calm   1 mph 58 % 0 in
23:02 76.8 °F 61.3 °F 29.8 in Calm   1 mph 59 % 0 in
23:07 76.3 °F 61.9 °F 29.8 in WNW 1 mph 2 mph 61 % 0 in
23:12 75.7 °F 61.9 °F 29.9 in Calm   2 mph 62 % 0 in
23:17 75.9 °F 61.5 °F 29.9 in Calm   2 mph 61 % 0 in
23:22 76.3 °F 61.3 °F 29.9 in Calm   2 mph 60 % 0 in
23:27 76.5 °F 61 °F 29.8 in Calm   1 mph 59 % 0 in
23:32 76.3 °F 61.3 °F 29.8 in Calm   1 mph 60 % 0 in
23:37 75.6 °F 61.7 °F 29.9 in Calm     62 % 0 in
23:42 75.2 °F 61.3 °F 29.9 in Calm     62 % 0 in
23:47 75 °F 60.3 °F 29.9 in Calm     60 % 0 in
23:52 75 °F 60.3 °F 29.9 in Calm   2 mph 60 % 0 in
23:57 75.6 °F 60.3 °F 29.9 in Calm   2 mph 59 % 0 in
Meteo18
Compliments of Weather Underground - 4 mb

Script developed by  Jim McMurry - jmcmurry@mwt.net Adapted for the template by  Wim van der Kuil - Leuven-Template.eu

You find our weather info also at:

European Weather Network

Weather Underground

Equipment we use:

Weather-station
Davis Vue

Weather-program
Meteohub

Weather-server
Raspberry PI 2 B+

Provider
1 and 1

Davis Vue

Meteohub

Raspberry PI 2 B+

1 and 1